createdAt,value
2022-10-21T00:02:11.748Z,10.02
2022-10-21T00:07:14.551Z,10.13
2022-10-21T00:12:17.350Z,10.09
2022-10-21T00:17:21.479Z,10.09
2022-10-21T00:22:26.389Z,9.92
2022-10-21T00:27:29.202Z,10.05
2022-10-21T00:32:33.502Z,10.10
2022-10-21T00:37:36.599Z,10.08
2022-10-21T00:42:45.532Z,10.22
2022-10-21T00:47:56.941Z,10.22
2022-10-21T00:53:01.572Z,10.27
2022-10-21T00:58:05.347Z,10.28
2022-10-21T01:03:09.655Z,10.21
2022-10-21T01:08:12.534Z,10.30
2022-10-21T01:13:26.500Z,10.39
2022-10-21T01:18:37.784Z,10.52
2022-10-21T01:24:22.478Z,10.54
2022-10-21T01:29:57.269Z,10.48
2022-10-21T01:35:07.149Z,10.44
2022-10-21T01:40:16.537Z,10.31
2022-10-21T01:45:25.762Z,10.31
2022-10-21T01:50:33.118Z,10.17
2022-10-21T01:55:37.584Z,10.23
2022-10-21T02:00:42.117Z,10.19
2022-10-21T02:05:46.490Z,10.14
2022-10-21T02:10:53.992Z,10.14
2022-10-21T02:16:01.331Z,10.27
2022-10-21T02:21:09.686Z,10.26
2022-10-21T02:26:12.386Z,10.16
2022-10-21T02:31:25.577Z,10.10
2022-10-21T02:36:41.563Z,10.01
2022-10-21T02:41:45.597Z,9.99
2022-10-21T02:46:49.375Z,9.94
2022-10-21T02:51:53.687Z,9.97
2022-10-21T02:56:56.452Z,10.02
2022-10-21T03:01:59.296Z,9.99
2022-10-21T03:07:03.425Z,9.96
2022-10-21T03:12:06.213Z,10.13
2022-10-21T03:17:09.091Z,10.09
2022-10-21T03:22:13.325Z,10.09
2022-10-21T03:27:16.046Z,10.10
2022-10-21T03:32:18.815Z,10.00
2022-10-21T03:37:22.967Z,9.95
2022-10-21T03:42:28.076Z,9.97
2022-10-21T03:47:33.581Z,9.96
2022-10-21T03:52:37.958Z,9.90
2022-10-21T03:57:41.215Z,9.84
2022-10-21T04:02:44.413Z,9.97
2022-10-21T04:07:50.765Z,10.00
2022-10-21T04:12:55.827Z,9.91
2022-10-21T04:17:58.720Z,9.92
2022-10-21T04:23:03.286Z,9.90
2022-10-21T04:28:06.039Z,9.79
2022-10-21T04:33:09.012Z,9.85
2022-10-21T04:38:13.170Z,9.87
2022-10-21T04:43:15.930Z,9.88
2022-10-21T04:48:19.196Z,9.86
2022-10-21T04:53:23.992Z,9.86
2022-10-21T04:58:27.027Z,9.77
2022-10-21T05:03:35.075Z,9.66
2022-10-21T05:08:39.378Z,9.82
2022-10-21T05:13:43.194Z,9.79
2022-10-21T05:18:46.148Z,9.76
2022-10-21T05:23:51.986Z,9.74
2022-10-21T05:28:54.827Z,9.73
2022-10-21T05:33:58.164Z,9.73
2022-10-21T05:39:02.868Z,9.77
2022-10-21T05:44:06.035Z,9.72
2022-10-21T05:49:08.834Z,9.76
2022-10-21T05:54:13.011Z,9.77
2022-10-21T05:59:16.208Z,9.79
2022-10-21T06:04:19.055Z,9.79
2022-10-21T06:09:23.199Z,9.88
2022-10-21T06:14:26.400Z,9.85
2022-10-21T06:19:29.375Z,9.92
2022-10-21T06:24:33.699Z,10.06
2022-10-21T06:29:36.515Z,10.08
2022-10-21T06:34:39.384Z,10.12
2022-10-21T06:39:43.578Z,10.15
2022-10-21T06:44:46.432Z,10.31
2022-10-21T06:49:49.294Z,10.28
2022-10-21T06:54:55.824Z,10.37
2022-10-21T06:59:58.623Z,10.50
2022-10-21T07:05:01.351Z,10.52
2022-10-21T07:10:06.131Z,10.43
2022-10-21T07:15:09.824Z,10.50
2022-10-21T07:20:15.573Z,10.57
2022-10-21T07:25:20.075Z,10.65
2022-10-21T07:30:23.464Z,10.65
2022-10-21T07:35:26.395Z,10.72
2022-10-21T07:40:31.803Z,10.92
2022-10-21T07:45:35.246Z,10.87
2022-10-21T07:50:38.641Z,11.00
2022-10-21T07:55:45.894Z,11.01
2022-10-21T08:00:48.746Z,11.19
2022-10-21T08:05:52.769Z,11.27
2022-10-21T08:10:58.329Z,11.38
2022-10-21T08:16:01.868Z,11.54
2022-10-21T08:21:08.463Z,11.87
2022-10-21T08:26:14.323Z,12.24
2022-10-21T08:31:18.847Z,12.49
2022-10-21T08:36:24.886Z,12.35
2022-10-21T08:41:47.673Z,12.38
2022-10-21T08:46:55.419Z,12.58
2022-10-21T08:52:03.368Z,12.85
2022-10-21T08:57:11.530Z,12.68
2022-10-21T09:02:27.804Z,12.51
2022-10-21T09:07:49.127Z,12.56
2022-10-21T09:13:05.587Z,12.70
2022-10-21T09:18:27.598Z,12.86
2022-10-21T09:23:41.289Z,13.09
2022-10-21T09:28:46.651Z,13.15
2022-10-21T09:33:56.156Z,13.07
2022-10-21T09:39:04.005Z,13.00
2022-10-21T09:44:11.959Z,12.74
2022-10-21T09:54:49.952Z,12.47
2022-10-21T10:00:00.098Z,12.51
2022-10-21T10:05:05.394Z,12.62
2022-10-21T10:10:31.262Z,12.80
2022-10-21T10:15:37.351Z,12.97
2022-10-21T10:20:40.300Z,13.06
2022-10-21T10:25:50.775Z,13.30
2022-10-21T10:30:58.099Z,13.36
2022-10-21T10:36:05.303Z,13.44
2022-10-21T10:41:17.695Z,13.32
2022-10-21T10:46:29.177Z,13.58
2022-10-21T10:51:34.640Z,13.66
2022-10-21T10:56:42.630Z,13.85
2022-10-21T11:01:54.751Z,13.98
2022-10-21T11:07:04.061Z,13.96
2022-10-21T11:12:16.983Z,14.04
2022-10-21T11:17:26.467Z,14.13
2022-10-21T11:22:41.377Z,14.36
2022-10-21T11:28:01.629Z,14.56
2022-10-21T11:33:18.596Z,14.63
2022-10-21T11:38:36.310Z,14.76
2022-10-21T11:43:45.599Z,14.94
2022-10-21T11:49:12.246Z,15.00
2022-10-21T11:54:58.271Z,15.09
2022-10-21T12:00:14.721Z,15.05
2022-10-21T12:05:26.741Z,15.17
2022-10-21T12:10:35.759Z,15.26
2022-10-21T12:15:42.139Z,15.32
2022-10-21T12:20:49.145Z,15.48
2022-10-21T12:26:08.004Z,15.49
2022-10-21T12:31:27.580Z,15.52
2022-10-21T12:36:44.128Z,15.51
2022-10-21T12:41:48.373Z,15.52
2022-10-21T12:46:53.806Z,15.41
2022-10-21T12:52:06.079Z,15.36
2022-10-21T12:57:11.092Z,15.49
2022-10-21T13:02:31.553Z,15.57
2022-10-21T13:07:39.706Z,15.79
2022-10-21T13:12:42.527Z,15.94
2022-10-21T13:17:53.319Z,16.00
2022-10-21T13:23:31.776Z,15.98
2022-10-21T13:28:35.414Z,15.99
2022-10-21T13:33:38.993Z,16.16
2022-10-21T13:38:52.186Z,16.31
2022-10-21T13:43:58.367Z,16.32
2022-10-21T13:49:01.182Z,16.47
2022-10-21T13:54:12.637Z,16.48
2022-10-21T13:59:26.801Z,16.57
2022-10-21T14:04:31.688Z,16.68
2022-10-21T14:09:40.184Z,16.67
2022-10-21T14:14:43.039Z,16.57
2022-10-21T14:19:48.785Z,16.60
2022-10-21T14:24:56.542Z,16.55
2022-10-21T14:30:02.937Z,16.63
2022-10-21T14:35:23.436Z,16.52
2022-10-21T14:40:32.054Z,16.49
2022-10-21T14:45:37.304Z,16.46
2022-10-21T14:50:41.730Z,16.42
2022-10-21T14:55:48.790Z,16.25
2022-10-21T15:00:55.920Z,16.23
2022-10-21T15:06:09.532Z,16.07
2022-10-21T15:11:23.666Z,15.97
2022-10-21T15:16:30.427Z,15.89
2022-10-21T15:21:37.130Z,15.88
2022-10-21T15:26:42.441Z,15.76
2022-10-21T15:31:45.535Z,15.82
2022-10-21T15:37:08.344Z,15.87
2022-10-21T15:42:44.833Z,15.80
2022-10-21T15:47:52.404Z,15.58
2022-10-21T15:58:05.360Z,15.53
2022-10-21T16:03:10.172Z,15.49
2022-10-21T16:08:16.555Z,15.40
2022-10-21T16:13:21.230Z,15.22
2022-10-21T16:18:24.197Z,15.05
2022-10-21T16:23:34.137Z,14.97
2022-10-21T16:28:38.382Z,14.91
2022-10-21T16:33:41.889Z,14.90
2022-10-21T16:38:52.974Z,14.88
2022-10-21T16:43:59.700Z,14.80
2022-10-21T16:49:13.350Z,14.85
2022-10-21T16:54:17.367Z,14.95
2022-10-21T16:59:24.128Z,15.05
2022-10-21T17:04:29.261Z,15.13
2022-10-21T17:09:36.851Z,15.14
2022-10-21T17:14:41.345Z,15.09
2022-10-21T17:19:44.152Z,15.02
2022-10-21T17:24:52.139Z,15.22
2022-10-21T17:29:56.509Z,15.20
2022-10-21T17:34:59.756Z,15.18
2022-10-21T17:40:02.681Z,15.28
2022-10-21T17:45:10.593Z,15.34
2022-10-21T17:50:14.674Z,15.38
2022-10-21T17:55:17.985Z,15.34
2022-10-21T18:00:22.527Z,15.32
2022-10-21T18:05:29.090Z,15.28
2022-10-21T18:10:32.291Z,15.22
2022-10-21T18:15:39.603Z,15.26
2022-10-21T18:20:42.599Z,15.21
2022-10-21T18:25:45.691Z,15.24
2022-10-21T18:30:50.251Z,15.31
2022-10-21T18:35:53.237Z,15.24
2022-10-21T18:41:18.936Z,15.27
2022-10-21T18:46:28.561Z,15.29
2022-10-21T18:51:35.302Z,15.34
2022-10-21T18:56:41.043Z,15.27
2022-10-21T19:01:55.236Z,15.23
2022-10-21T19:07:01.764Z,15.23
2022-10-21T19:12:35.655Z,15.23
2022-10-21T19:17:47.569Z,15.27
2022-10-21T19:22:54.366Z,15.22
2022-10-21T19:28:33.394Z,15.14
2022-10-21T19:39:51.295Z,15.09
2022-10-21T19:45:25.629Z,15.03
2022-10-21T19:51:04.079Z,14.98
2022-10-21T19:56:10.947Z,14.97
2022-10-21T20:01:24.598Z,14.97
2022-10-21T20:06:35.457Z,14.99
2022-10-21T20:11:39.687Z,14.97
2022-10-21T20:16:43.341Z,14.90
2022-10-21T20:22:04.317Z,14.88
2022-10-21T20:27:11.053Z,14.83
2022-10-21T20:32:14.347Z,14.79
2022-10-21T20:37:18.897Z,14.78
2022-10-21T20:42:24.591Z,14.70
2022-10-21T20:47:34.689Z,14.67
2022-10-21T20:52:41.794Z,14.66
2022-10-21T20:57:45.240Z,14.64
2022-10-21T21:02:49.758Z,14.62
2022-10-21T21:08:09.278Z,14.62
2022-10-21T21:13:12.458Z,14.57
2022-10-21T21:18:18.381Z,14.52
2022-10-21T21:23:23.613Z,14.47
2022-10-21T21:28:32.723Z,14.48
2022-10-21T21:33:39.402Z,14.43
2022-10-21T21:38:43.927Z,14.38
2022-10-21T21:43:48.319Z,14.27
2022-10-21T21:48:55.351Z,14.15
2022-10-21T21:54:01.617Z,13.98
2022-10-21T21:59:11.356Z,13.89
2022-10-21T22:04:14.159Z,13.84
2022-10-21T22:09:18.873Z,13.82
2022-10-21T22:14:26.253Z,13.97
2022-10-21T22:19:29.148Z,14.11
2022-10-21T22:24:39.493Z,14.23
2022-10-21T22:29:42.415Z,14.30
2022-10-21T22:34:57.058Z,14.35
2022-10-21T22:40:03.471Z,14.46
2022-10-21T22:45:09.741Z,14.48
2022-10-21T22:50:12.602Z,14.52
2022-10-21T22:55:16.961Z,14.52
2022-10-21T23:00:20.152Z,14.56
2022-10-21T23:05:23.127Z,14.56
2022-10-21T23:10:27.362Z,14.57
2022-10-21T23:15:32.135Z,14.61
2022-10-21T23:20:35.658Z,14.59
2022-10-21T23:25:39.858Z,14.58
2022-10-21T23:30:43.297Z,14.57
2022-10-21T23:35:46.133Z,14.56
2022-10-21T23:40:50.499Z,14.53
2022-10-21T23:45:53.227Z,14.53
2022-10-21T23:50:56.071Z,14.54
2022-10-21T23:56:00.164Z,14.54
